General Roca, Argentina
Current Conditions -  °F | °C
As of 11:00 PM on Monday 24 Nov 2014 (Local Time) from SAAR Reporting Station
Clear Clear  
Wind Chill: 18°   Ceiling: Unl
Heat Index: 18°   Visibility: 6mi
Dew Point: 10°   Wind: 7mph
Humidity: 59%   Direction: 180°S
Pressure: 29.91"   Gusts: NA
Location:  32.73°S, 61.92°W
Report Text: SAAR 250200Z 18006KT CAVOK 18/10 Q1013
Loading
Personal Weather Stations






























Interactive Weather Map New forecast layout! Learn more

10-Day Weather Forecast

Advertisements
Track Severe Weather on mobile